createdAt,value
2017-03-18T00:00:03.777Z,14.25
2017-03-18T00:01:09.419Z,13.23
2017-03-18T00:02:15.834Z,15.63
2017-03-18T00:03:21.491Z,15.93
2017-03-18T00:04:27.855Z,16.03
2017-03-18T00:05:32.650Z,13.40
2017-03-18T00:06:38.090Z,13.75
2017-03-18T00:07:44.526Z,15.60
2017-03-18T00:08:49.446Z,13.83
2017-03-18T00:09:54.976Z,14.87
2017-03-18T00:11:00.558Z,14.92
2017-03-18T00:12:06.145Z,13.42
2017-03-18T00:13:12.378Z,14.00
2017-03-18T00:14:17.210Z,13.57
2017-03-18T00:15:23.499Z,14.10
2017-03-18T00:16:28.375Z,17.97
2017-03-18T00:17:33.784Z,14.72
2017-03-18T00:18:39.803Z,15.13
2017-03-18T00:19:45.858Z,14.10
2017-03-18T00:20:51.396Z,14.25
2017-03-18T00:21:56.939Z,17.05
2017-03-18T00:23:01.718Z,15.90
2017-03-18T00:24:06.365Z,14.58
2017-03-18T00:25:11.937Z,15.15
2017-03-18T00:26:17.489Z,15.25
2017-03-18T00:27:23.079Z,15.23
2017-03-18T00:28:28.659Z,18.07
2017-03-18T00:29:34.217Z,15.67
2017-03-18T00:30:40.538Z,17.55
2017-03-18T00:31:45.294Z,17.45
2017-03-18T00:32:50.722Z,16.48
2017-03-18T00:33:57.066Z,17.42
2017-03-18T00:35:01.886Z,18.13
2017-03-18T00:36:06.597Z,18.17
2017-03-18T00:37:12.192Z,17.07
2017-03-18T00:38:17.630Z,15.62
2017-03-18T00:39:23.855Z,19.28
2017-03-18T00:40:28.702Z,18.97
2017-03-18T00:41:33.427Z,18.08
2017-03-18T00:42:38.995Z,17.10
2017-03-18T00:43:44.579Z,18.68
2017-03-18T00:44:50.213Z,19.73
2017-03-18T00:45:55.793Z,20.17
2017-03-18T00:47:02.053Z,21.63
2017-03-18T00:48:06.922Z,20.73
2017-03-18T00:49:12.503Z,19.78
2017-03-18T00:50:18.645Z,19.48
2017-03-18T00:51:23.301Z,21.12
2017-03-18T00:52:28.086Z,21.27
2017-03-18T00:53:33.660Z,21.78
2017-03-18T00:54:40.095Z,22.30
2017-03-18T00:55:45.617Z,23.07
2017-03-18T00:56:51.190Z,22.38
2017-03-18T00:57:56.834Z,24.13
2017-03-18T00:59:02.334Z,24.53
2017-03-18T01:00:07.873Z,23.42
2017-03-18T01:01:13.542Z,24.08
2017-03-18T01:02:19.682Z,25.40
2017-03-18T01:03:24.404Z,25.72
2017-03-18T01:04:30.669Z,25.52
2017-03-18T01:05:36.209Z,27.67
2017-03-18T01:06:41.629Z,27.15
2017-03-18T01:07:47.251Z,26.03
2017-03-18T01:08:52.871Z,26.13
2017-03-18T01:09:58.727Z,26.57
2017-03-18T01:11:04.215Z,25.25
2017-03-18T01:12:10.649Z,25.90
2017-03-18T01:13:15.416Z,24.00
2017-03-18T01:14:21.680Z,28.13
2017-03-18T01:15:27.333Z,27.47
2017-03-18T01:16:32.898Z,27.90
2017-03-18T01:17:37.710Z,26.55
2017-03-18T01:18:43.315Z,28.25
2017-03-18T01:19:48.973Z,26.30
2017-03-18T01:20:54.513Z,26.52
2017-03-18T01:22:00.034Z,28.82
2017-03-18T01:23:05.500Z,28.53
2017-03-18T01:24:11.854Z,31.47
2017-03-18T01:25:17.418Z,29.28
2017-03-18T01:26:22.230Z,29.22
2017-03-18T01:27:27.745Z,29.80
2017-03-18T01:28:33.373Z,30.58
2017-03-18T01:29:38.983Z,31.43
2017-03-18T01:30:45.422Z,32.42
2017-03-18T01:31:50.190Z,29.13
2017-03-18T01:32:56.461Z,30.40
2017-03-18T01:34:01.215Z,29.75
2017-03-18T01:35:05.933Z,27.97
2017-03-18T01:36:10.594Z,34.45
2017-03-18T01:37:16.286Z,35.00
2017-03-18T01:38:22.605Z,32.15
2017-03-18T01:39:28.268Z,33.33
2017-03-18T01:40:33.095Z,30.40
2017-03-18T01:41:39.533Z,32.18
2017-03-18T01:42:44.173Z,33.10
2017-03-18T01:43:49.034Z,30.28
2017-03-18T01:44:54.634Z,30.97
2017-03-18T01:45:59.365Z,34.63
2017-03-18T01:47:04.937Z,31.10
2017-03-18T01:48:10.519Z,31.80
2017-03-18T01:49:15.427Z,31.77
2017-03-18T01:50:20.870Z,31.82
2017-03-18T01:51:26.449Z,35.77
2017-03-18T01:52:31.870Z,32.70
2017-03-18T01:53:36.782Z,34.22
2017-03-18T01:54:41.450Z,33.67
2017-03-18T01:55:46.895Z,33.25
2017-03-18T01:56:52.490Z,32.33
2017-03-18T01:57:58.951Z,33.92
2017-03-18T01:59:04.862Z,32.25
2017-03-18T02:00:10.145Z,27.83
2017-03-18T02:01:15.821Z,30.57
2017-03-18T02:02:21.326Z,30.90
2017-03-18T02:03:26.015Z,29.98
2017-03-18T02:04:32.267Z,29.48
2017-03-18T02:05:37.102Z,31.27
2017-03-18T02:06:43.375Z,29.82
2017-03-18T02:07:48.171Z,32.33
2017-03-18T02:08:54.535Z,31.08
2017-03-18T02:09:59.995Z,30.83
2017-03-18T02:11:05.545Z,30.05
2017-03-18T02:12:10.354Z,31.40
2017-03-18T02:13:15.949Z,31.47
2017-03-18T02:14:21.459Z,33.48
2017-03-18T02:15:26.930Z,30.45
2017-03-18T02:16:32.439Z,29.33
2017-03-18T02:17:38.038Z,31.28
2017-03-18T02:18:43.646Z,30.83
2017-03-18T02:19:49.936Z,28.88
2017-03-18T02:20:54.718Z,28.65
2017-03-18T02:22:01.057Z,27.70
2017-03-18T02:23:07.442Z,26.45
2017-03-18T02:24:12.970Z,28.32
2017-03-18T02:25:17.773Z,25.65
2017-03-18T02:26:23.237Z,25.62
2017-03-18T02:27:28.641Z,27.95
2017-03-18T02:28:33.362Z,26.88
2017-03-18T02:29:38.834Z,25.43
2017-03-18T02:30:44.354Z,23.78
2017-03-18T02:31:49.048Z,25.43
2017-03-18T02:32:55.443Z,22.28
2017-03-18T02:34:00.854Z,23.87
2017-03-18T02:35:05.690Z,23.78
2017-03-18T02:36:12.142Z,24.28
2017-03-18T02:37:23.273Z,22.52
2017-03-18T02:38:29.337Z,21.55
2017-03-18T02:39:34.198Z,21.28
2017-03-18T02:40:40.353Z,22.10
2017-03-18T02:41:45.262Z,21.27
2017-03-18T02:42:50.695Z,21.40
2017-03-18T02:43:56.207Z,21.77
2017-03-18T02:45:02.606Z,21.78
2017-03-18T02:46:07.447Z,23.55
2017-03-18T02:47:13.061Z,22.27
2017-03-18T02:48:19.349Z,21.88
2017-03-18T02:49:24.205Z,21.57
2017-03-18T02:50:29.858Z,20.82
2017-03-18T02:51:35.335Z,20.72
2017-03-18T02:52:41.045Z,20.97
2017-03-18T02:53:47.286Z,20.55
2017-03-18T02:54:51.987Z,20.43
2017-03-18T02:55:57.338Z,21.50
2017-03-18T02:57:02.955Z,20.55
2017-03-18T02:58:08.598Z,19.05
2017-03-18T02:59:17.998Z,20.43
2017-03-18T03:00:23.615Z,19.40
2017-03-18T03:01:29.331Z,23.32
2017-03-18T03:02:35.735Z,20.10
2017-03-18T03:03:40.502Z,19.97
2017-03-18T03:04:45.998Z,22.17
2017-03-18T03:05:53.117Z,21.53
2017-03-18T03:06:58.334Z,19.30
2017-03-18T03:08:03.946Z,18.10
2017-03-18T03:09:09.643Z,21.45
2017-03-18T03:10:15.601Z,18.72
2017-03-18T03:11:20.579Z,21.35
2017-03-18T03:12:26.854Z,18.60
2017-03-18T03:13:32.095Z,19.45
2017-03-18T03:14:37.686Z,18.43
2017-03-18T03:15:43.942Z,17.22
2017-03-18T03:16:49.581Z,18.58
2017-03-18T03:17:54.223Z,17.28
2017-03-18T03:19:00.609Z,18.88
2017-03-18T03:20:05.389Z,15.33
2017-03-18T03:21:11.001Z,15.43
2017-03-18T03:22:17.278Z,15.73
2017-03-18T03:23:22.059Z,15.67
2017-03-18T03:24:27.614Z,14.92
2017-03-18T03:25:33.770Z,15.30
2017-03-18T03:26:38.721Z,17.25
2017-03-18T03:27:44.263Z,15.35
2017-03-18T03:28:50.555Z,15.10
2017-03-18T03:29:55.509Z,13.72
2017-03-18T03:31:01.011Z,14.92
2017-03-18T03:32:06.503Z,15.17
2017-03-18T03:33:11.973Z,15.07
2017-03-18T03:34:18.266Z,12.20
2017-03-18T03:35:23.186Z,12.35
2017-03-18T03:36:28.613Z,13.47
2017-03-18T03:37:34.102Z,12.90
2017-03-18T03:38:39.582Z,12.82
2017-03-18T03:39:45.194Z,14.72
2017-03-18T03:40:50.786Z,12.55
2017-03-18T03:41:57.039Z,11.17
2017-03-18T03:43:02.514Z,11.30
2017-03-18T03:44:07.174Z,11.80
2017-03-18T03:45:12.639Z,10.90
2017-03-18T03:46:18.149Z,13.33
2017-03-18T03:47:25.430Z,12.78
2017-03-18T03:48:30.246Z,12.77
2017-03-18T03:49:36.594Z,9.97
2017-03-18T03:50:41.359Z,10.92
2017-03-18T03:51:46.900Z,11.77
2017-03-18T03:52:52.546Z,15.60
2017-03-18T03:53:57.998Z,11.77
2017-03-18T03:55:02.737Z,11.17
2017-03-18T03:56:08.342Z,12.23
2017-03-18T03:57:13.867Z,18.92
2017-03-18T03:58:19.489Z,11.20
2017-03-18T03:59:24.806Z,12.27
2017-03-18T04:00:31.739Z,11.07
2017-03-18T04:01:37.329Z,10.53
2017-03-18T04:02:42.631Z,12.58
2017-03-18T04:03:48.306Z,11.98
2017-03-18T04:04:53.767Z,13.17
2017-03-18T04:06:00.045Z,10.80
2017-03-18T04:07:05.648Z,13.43
2017-03-18T04:08:11.210Z,12.18
2017-03-18T04:09:16.970Z,12.60
2017-03-18T04:10:21.722Z,10.43
2017-03-18T04:11:27.242Z,12.42
2017-03-18T04:12:32.845Z,11.93
2017-03-18T04:13:38.233Z,14.58
2017-03-18T04:14:43.834Z,11.87
2017-03-18T04:15:49.326Z,12.72
2017-03-18T04:16:54.858Z,11.97
2017-03-18T04:18:00.469Z,13.02
2017-03-18T04:19:06.840Z,13.33
2017-03-18T04:20:13.305Z,10.70
2017-03-18T04:21:18.890Z,13.48
2017-03-18T04:22:23.782Z,12.55
2017-03-18T04:23:29.430Z,11.73
2017-03-18T04:24:35.666Z,12.53
2017-03-18T04:25:40.465Z,12.37
2017-03-18T04:26:46.013Z,12.37
2017-03-18T04:27:51.522Z,13.25
2017-03-18T04:28:57.022Z,15.12
2017-03-18T04:30:03.453Z,11.50
2017-03-18T04:31:08.244Z,14.50
2017-03-18T04:32:13.802Z,13.93
2017-03-18T04:33:25.214Z,14.00
2017-03-18T04:34:30.287Z,12.42
2017-03-18T04:35:35.853Z,13.08
2017-03-18T04:36:41.474Z,13.18
2017-03-18T04:37:46.841Z,14.77
2017-03-18T04:38:53.126Z,12.17
2017-03-18T04:39:57.886Z,13.42
2017-03-18T04:41:03.382Z,12.65
2017-03-18T04:42:08.089Z,14.53
2017-03-18T04:43:13.607Z,15.67
2017-03-18T04:44:19.182Z,13.17
2017-03-18T04:45:24.773Z,17.43
2017-03-18T04:46:30.361Z,15.40
2017-03-18T04:47:37.765Z,15.10
2017-03-18T04:48:42.545Z,15.62
2017-03-18T04:49:48.665Z,15.28
2017-03-18T04:50:53.326Z,14.53
2017-03-18T04:51:58.810Z,17.10
2017-03-18T04:53:03.598Z,15.98
2017-03-18T04:54:09.799Z,14.75
2017-03-18T04:55:14.739Z,15.50
2017-03-18T04:56:20.998Z,16.97
2017-03-18T04:57:25.725Z,19.57
2017-03-18T04:58:30.463Z,18.30
2017-03-18T04:59:35.930Z,17.13
2017-03-18T05:00:42.281Z,15.55
2017-03-18T05:01:47.890Z,18.92
2017-03-18T05:02:53.470Z,17.35
2017-03-18T05:03:59.202Z,16.92
2017-03-18T05:05:04.821Z,17.75
2017-03-18T05:06:10.414Z,17.80
2017-03-18T05:07:16.806Z,15.95
2017-03-18T05:08:21.699Z,16.22
2017-03-18T05:09:27.938Z,16.57
2017-03-18T05:10:33.490Z,17.27
2017-03-18T05:11:39.098Z,17.88
2017-03-18T05:12:44.668Z,19.60
2017-03-18T05:13:49.506Z,17.17
2017-03-18T05:14:55.158Z,16.38
2017-03-18T05:15:59.834Z,15.62
2017-03-18T05:17:05.324Z,16.30
2017-03-18T05:20:05.658Z,18.25
2017-03-18T05:21:11.259Z,17.80
2017-03-18T05:22:16.146Z,15.92
2017-03-18T05:23:22.599Z,17.25
2017-03-18T05:24:28.698Z,15.80
2017-03-18T05:25:33.877Z,14.03
2017-03-18T05:26:39.290Z,17.17
2017-03-18T05:27:44.698Z,16.95
2017-03-18T05:28:49.487Z,16.18
2017-03-18T05:29:55.054Z,16.53
2017-03-18T05:31:00.670Z,16.77
2017-03-18T05:32:06.178Z,16.23
2017-03-18T05:33:11.007Z,15.88
2017-03-18T05:34:16.526Z,16.72
2017-03-18T05:35:22.045Z,17.40
2017-03-18T05:36:27.622Z,18.42
2017-03-18T05:37:33.979Z,16.58
2017-03-18T05:38:38.787Z,17.62
2017-03-18T05:39:45.039Z,16.73
2017-03-18T05:40:49.882Z,16.05
2017-03-18T05:41:56.318Z,15.63
2017-03-18T05:43:01.102Z,17.12
2017-03-18T05:44:06.667Z,15.58
2017-03-18T05:45:12.873Z,16.02
2017-03-18T05:46:18.470Z,15.45
2017-03-18T05:47:25.685Z,14.43
2017-03-18T05:48:31.300Z,13.35
2017-03-18T05:49:36.115Z,14.35
2017-03-18T05:50:41.146Z,14.53
2017-03-18T05:51:46.357Z,13.28
2017-03-18T05:52:51.983Z,14.17
2017-03-18T05:53:57.550Z,14.10
2017-03-18T05:55:02.250Z,16.58
2017-03-18T05:56:08.606Z,13.23
2017-03-18T05:57:13.428Z,13.77
2017-03-18T05:58:19.043Z,13.10
2017-03-18T05:59:24.690Z,13.23
2017-03-18T06:00:30.841Z,14.57
2017-03-18T06:01:35.722Z,14.57
2017-03-18T06:02:41.232Z,12.87
2017-03-18T06:03:46.890Z,12.93
2017-03-18T06:04:52.514Z,11.98
2017-03-18T06:05:58.102Z,11.97
2017-03-18T06:07:03.637Z,12.68
2017-03-18T06:08:09.146Z,12.18
2017-03-18T06:09:34.960Z,11.55
2017-03-18T06:10:39.768Z,11.98
2017-03-18T06:11:45.241Z,11.75
2017-03-18T06:12:50.055Z,12.28
2017-03-18T06:13:55.662Z,10.83
2017-03-18T06:15:01.254Z,10.22
2017-03-18T06:16:06.749Z,10.12
2017-03-18T06:17:12.254Z,10.73
2017-03-18T06:18:17.735Z,10.68
2017-03-18T06:19:22.446Z,9.72
2017-03-18T06:20:28.782Z,11.57
2017-03-18T06:21:33.622Z,11.10
2017-03-18T06:22:39.203Z,11.03
2017-03-18T06:23:44.702Z,11.03
2017-03-18T06:24:50.242Z,10.75
2017-03-18T06:25:55.880Z,9.28
2017-03-18T06:27:01.340Z,10.30
2017-03-18T06:28:07.627Z,11.32
2017-03-18T06:29:13.234Z,12.00
2017-03-18T06:30:18.350Z,11.33
2017-03-18T06:31:23.578Z,10.65
2017-03-18T06:32:28.283Z,10.07
2017-03-18T06:33:34.667Z,10.50
2017-03-18T06:34:41.060Z,11.37
2017-03-18T06:35:46.073Z,11.08
2017-03-18T06:36:52.263Z,11.45
2017-03-18T06:37:57.250Z,11.48
2017-03-18T06:39:02.859Z,11.85
2017-03-18T06:40:07.957Z,9.80
2017-03-18T06:41:13.473Z,10.32
2017-03-18T06:42:19.095Z,10.10
2017-03-18T06:43:24.710Z,9.53
2017-03-18T06:44:30.230Z,9.77
2017-03-18T06:45:36.422Z,11.47
2017-03-18T06:46:42.238Z,9.92
2017-03-18T06:47:47.958Z,9.12
2017-03-18T06:48:53.612Z,9.73
2017-03-18T06:49:58.294Z,8.95
2017-03-18T06:51:03.754Z,8.90
2017-03-18T06:55:09.734Z,8.50
2017-03-18T06:56:14.346Z,8.40
2017-03-18T06:57:38.416Z,9.07
2017-03-18T06:58:43.419Z,9.18
2017-03-18T06:59:49.014Z,8.33
2017-03-18T07:00:53.906Z,7.23
2017-03-18T07:01:59.398Z,7.47
2017-03-18T07:03:05.807Z,8.32
2017-03-18T07:04:11.403Z,7.28
2017-03-18T07:05:16.865Z,7.80
2017-03-18T07:06:22.382Z,7.83
2017-03-18T07:07:28.685Z,8.68
2017-03-18T07:08:33.766Z,7.68
2017-03-18T07:09:39.087Z,7.60
2017-03-18T07:10:44.502Z,7.53
2017-03-18T07:11:50.129Z,7.00
2017-03-18T07:12:55.630Z,6.47
2017-03-18T07:14:02.262Z,7.03
2017-03-18T07:15:08.498Z,6.75
2017-03-18T07:16:13.302Z,7.17
2017-03-18T07:17:20.732Z,6.52
2017-03-18T07:18:26.190Z,7.05
2017-03-18T07:19:31.127Z,6.05
2017-03-18T07:20:36.713Z,5.85
2017-03-18T07:21:42.326Z,6.02
2017-03-18T07:22:47.998Z,5.92
2017-03-18T07:23:54.334Z,5.50
2017-03-18T07:24:59.762Z,6.18
2017-03-18T07:26:04.519Z,6.38
2017-03-18T07:27:10.098Z,6.58
2017-03-18T07:28:14.770Z,6.55
2017-03-18T07:29:19.486Z,5.30
2017-03-18T07:30:25.101Z,6.83
2017-03-18T07:31:31.325Z,5.80
2017-03-18T07:32:35.966Z,5.90
2017-03-18T07:33:42.474Z,4.63
2017-03-18T07:34:48.010Z,5.03
2017-03-18T07:35:52.714Z,6.37
2017-03-18T07:36:58.098Z,5.80
2017-03-18T07:38:04.270Z,6.17
2017-03-18T07:39:09.467Z,5.87
2017-03-18T07:40:14.903Z,11.12
2017-03-18T07:41:20.993Z,5.23
2017-03-18T07:42:26.691Z,5.13
2017-03-18T07:43:31.646Z,5.23
2017-03-18T07:44:37.254Z,5.37
2017-03-18T07:45:43.584Z,5.25
2017-03-18T07:46:48.322Z,5.08
2017-03-18T07:47:52.950Z,5.53
2017-03-18T07:48:59.340Z,5.45
2017-03-18T07:50:04.840Z,4.80
2017-03-18T07:51:09.634Z,5.95
2017-03-18T07:52:15.237Z,4.97
2017-03-18T07:53:20.798Z,4.75
2017-03-18T07:54:26.371Z,4.55
2017-03-18T07:55:31.821Z,4.40
2017-03-18T07:56:37.389Z,4.37
2017-03-18T07:57:42.970Z,4.87
2017-03-18T07:58:48.531Z,4.57
2017-03-18T07:59:54.138Z,4.17
2017-03-18T08:00:59.553Z,3.82
2017-03-18T08:02:06.066Z,4.32
2017-03-18T08:03:17.550Z,6.63
2017-03-18T08:04:23.030Z,4.32
2017-03-18T08:05:27.882Z,3.83
2017-03-18T08:06:34.394Z,4.28
2017-03-18T08:07:39.238Z,4.25
2017-03-18T08:08:44.738Z,4.08
2017-03-18T08:09:50.227Z,3.62
2017-03-18T08:10:55.823Z,3.87
2017-03-18T08:12:02.750Z,4.22
2017-03-18T08:13:08.018Z,3.92
2017-03-18T08:14:13.458Z,3.70
2017-03-18T08:15:19.893Z,3.90
2017-03-18T08:16:25.503Z,4.07
2017-03-18T08:17:31.031Z,4.15
2017-03-18T08:18:35.763Z,3.63
2017-03-18T08:19:42.213Z,3.68
2017-03-18T08:20:47.121Z,3.82
2017-03-18T08:21:53.489Z,3.98
2017-03-18T08:22:58.406Z,4.25
2017-03-18T08:24:03.858Z,5.78
2017-03-18T08:25:10.301Z,3.32
2017-03-18T08:26:15.092Z,3.60
2017-03-18T08:27:20.740Z,3.67
2017-03-18T08:28:26.333Z,3.78
2017-03-18T08:29:33.934Z,3.48
2017-03-18T08:30:39.501Z,3.45
2017-03-18T08:31:44.152Z,3.23
2017-03-18T08:32:49.723Z,3.18
2017-03-18T08:33:58.033Z,3.57
2017-03-18T08:35:03.798Z,3.75
2017-03-18T08:36:10.186Z,3.30
2017-03-18T08:37:14.869Z,3.50
2017-03-18T08:38:20.550Z,3.17
2017-03-18T08:39:26.546Z,2.92
2017-03-18T08:40:31.693Z,3.18
2017-03-18T08:41:37.286Z,3.38
2017-03-18T08:42:42.847Z,3.22
2017-03-18T08:43:49.219Z,3.47
2017-03-18T08:44:53.902Z,3.13
2017-03-18T08:45:59.298Z,3.30
2017-03-18T08:47:04.738Z,4.43
2017-03-18T08:48:11.201Z,3.10
2017-03-18T08:49:22.919Z,3.35
2017-03-18T08:50:28.326Z,2.73
2017-03-18T08:51:33.014Z,3.15
2017-03-18T08:52:39.650Z,3.90
2017-03-18T08:53:45.255Z,3.18
2017-03-18T08:54:50.818Z,2.95
2017-03-18T08:55:56.421Z,4.28
2017-03-18T08:57:02.146Z,3.28
2017-03-18T08:58:07.486Z,4.08
2017-03-18T08:59:12.970Z,3.32
2017-03-18T09:00:17.759Z,3.43
2017-03-18T09:01:23.406Z,3.02
2017-03-18T09:02:28.676Z,3.70
2017-03-18T09:03:34.340Z,3.70
2017-03-18T09:04:39.859Z,3.40
2017-03-18T09:05:45.353Z,4.30
2017-03-18T09:06:50.961Z,3.60
2017-03-18T09:07:56.427Z,3.65
2017-03-18T09:09:01.874Z,4.32
2017-03-18T09:10:07.370Z,3.73
2017-03-18T09:11:12.941Z,4.22
2017-03-18T09:12:18.618Z,5.23
2017-03-18T09:13:24.002Z,4.27
2017-03-18T09:14:29.558Z,4.23
2017-03-18T09:15:35.155Z,3.65
2017-03-18T09:16:40.525Z,3.63
2017-03-18T09:17:47.180Z,4.27
2017-03-18T09:18:52.703Z,3.95
2017-03-18T09:19:58.334Z,3.82
2017-03-18T09:21:03.847Z,3.58
2017-03-18T09:22:09.274Z,4.33
2017-03-18T09:23:14.866Z,4.03
2017-03-18T09:24:20.342Z,3.75
2017-03-18T09:25:25.954Z,3.95
2017-03-18T09:26:31.560Z,4.17
2017-03-18T09:27:37.019Z,4.35
2017-03-18T09:28:42.518Z,3.72
2017-03-18T09:29:47.875Z,3.98
2017-03-18T09:30:52.553Z,3.60
2017-03-18T09:31:58.130Z,3.75
2017-03-18T09:33:03.578Z,3.92
2017-03-18T09:34:09.224Z,4.62
2017-03-18T09:35:14.754Z,3.23
2017-03-18T09:36:20.334Z,3.82
2017-03-18T09:37:25.766Z,4.45
2017-03-18T09:38:31.381Z,4.78
2017-03-18T09:39:36.862Z,3.45
2017-03-18T09:40:42.323Z,3.12
2017-03-18T09:41:47.902Z,3.90
2017-03-18T09:42:54.382Z,3.20
2017-03-18T09:43:59.222Z,3.35
2017-03-18T09:45:04.647Z,3.50
2017-03-18T09:46:14.894Z,3.53
2017-03-18T09:48:38.271Z,2.92
2017-03-18T09:49:43.861Z,2.88
2017-03-18T09:50:50.089Z,3.45
2017-03-18T09:51:54.845Z,2.68
2017-03-18T09:53:03.427Z,3.07
2017-03-18T09:54:08.298Z,2.90
2017-03-18T09:55:13.750Z,3.03
2017-03-18T09:56:19.712Z,3.20
2017-03-18T09:57:27.919Z,3.03
2017-03-18T09:58:33.473Z,3.40
2017-03-18T09:59:39.985Z,2.85
2017-03-18T10:00:46.264Z,3.63
2017-03-18T10:01:51.179Z,3.03
2017-03-18T10:02:56.430Z,2.83
2017-03-18T10:04:02.085Z,2.85
2017-03-18T10:05:07.570Z,2.95
2017-03-18T10:06:14.250Z,3.12
2017-03-18T10:07:19.697Z,2.65
2017-03-18T10:08:25.702Z,2.85
2017-03-18T10:09:30.735Z,2.62
2017-03-18T10:10:36.234Z,2.83
2017-03-18T10:11:41.878Z,2.48
2017-03-18T10:12:48.783Z,2.75
2017-03-18T10:13:54.187Z,2.55
2017-03-18T10:15:01.115Z,2.88
2017-03-18T10:16:07.088Z,2.75
2017-03-18T10:17:12.037Z,2.77
2017-03-18T10:18:19.431Z,2.68
2017-03-18T10:19:24.266Z,4.17
2017-03-18T10:20:29.747Z,2.47
2017-03-18T10:21:35.370Z,2.03
2017-03-18T10:22:40.977Z,2.40
2017-03-18T10:23:46.512Z,3.75
2017-03-18T10:24:51.910Z,2.80
2017-03-18T10:25:57.570Z,2.50
2017-03-18T10:27:03.073Z,2.23
2017-03-18T10:28:07.808Z,2.08
2017-03-18T10:29:13.513Z,4.13
2017-03-18T10:30:18.950Z,2.77
2017-03-18T10:31:24.355Z,2.32
2017-03-18T10:32:30.314Z,2.72
2017-03-18T10:33:36.467Z,2.47
2017-03-18T10:34:42.082Z,2.20
2017-03-18T10:35:47.666Z,2.87
2017-03-18T10:36:53.957Z,5.25
2017-03-18T10:37:58.909Z,2.13
2017-03-18T10:39:04.781Z,1.90
2017-03-18T10:40:09.914Z,2.07
2017-03-18T10:41:15.538Z,2.40
2017-03-18T10:42:21.255Z,2.00
2017-03-18T10:43:26.546Z,3.00
2017-03-18T10:44:32.069Z,2.15
2017-03-18T10:45:38.416Z,2.55
2017-03-18T10:46:43.311Z,2.65
2017-03-18T10:47:48.851Z,2.53
2017-03-18T10:48:54.326Z,2.52
2017-03-18T10:49:59.674Z,2.65
2017-03-18T10:51:06.010Z,2.15
2017-03-18T10:52:10.855Z,2.27
2017-03-18T10:53:17.150Z,1.50
2017-03-18T10:54:21.931Z,2.58
2017-03-18T10:55:27.801Z,2.45
2017-03-18T10:56:33.242Z,1.95
2017-03-18T10:57:38.814Z,2.02
2017-03-18T10:58:44.387Z,2.27
2017-03-18T10:59:49.934Z,1.95
2017-03-18T11:00:55.463Z,1.83
2017-03-18T11:02:01.371Z,1.97
2017-03-18T11:03:06.568Z,1.70
2017-03-18T11:04:13.626Z,1.75
2017-03-18T11:05:19.142Z,2.87
2017-03-18T11:06:24.407Z,2.02
2017-03-18T11:07:30.518Z,2.25
2017-03-18T11:08:36.894Z,2.75
2017-03-18T11:09:42.050Z,1.85
2017-03-18T11:10:48.667Z,1.80
2017-03-18T11:11:54.069Z,2.22
2017-03-18T11:12:59.667Z,3.98
2017-03-18T11:14:04.927Z,3.27
2017-03-18T11:15:10.442Z,1.60
2017-03-18T11:16:17.458Z,1.77
2017-03-18T11:17:22.356Z,3.95
2017-03-18T11:18:28.010Z,1.85
2017-03-18T11:19:34.260Z,2.38
2017-03-18T11:20:39.170Z,1.83
2017-03-18T11:21:44.009Z,2.10
2017-03-18T11:22:49.499Z,2.22
2017-03-18T11:23:55.238Z,1.98
2017-03-18T11:25:01.533Z,1.57
2017-03-18T11:26:07.049Z,1.72
2017-03-18T11:27:12.542Z,1.42
2017-03-18T11:28:18.099Z,1.45
2017-03-18T11:29:23.511Z,2.03
2017-03-18T11:30:29.094Z,1.68
2017-03-18T11:31:34.706Z,1.57
2017-03-18T11:32:40.986Z,1.20
2017-03-18T11:33:45.791Z,2.82
2017-03-18T11:34:51.457Z,2.33
2017-03-18T11:35:57.806Z,1.83
2017-03-18T11:37:02.462Z,1.35
2017-03-18T11:38:07.897Z,1.38
2017-03-18T11:39:12.717Z,2.08
2017-03-18T11:40:19.107Z,1.43
2017-03-18T11:41:24.954Z,1.40
2017-03-18T11:42:30.590Z,2.17
2017-03-18T11:43:35.906Z,1.58
2017-03-18T11:44:41.373Z,1.13
2017-03-18T11:45:47.882Z,1.50
2017-03-18T11:46:53.338Z,1.38
2017-03-18T11:47:58.154Z,1.45
2017-03-18T11:49:03.950Z,1.42
2017-03-18T11:50:09.159Z,1.45
2017-03-18T11:51:15.606Z,2.00
2017-03-18T11:52:20.326Z,2.77
2017-03-18T11:53:26.625Z,2.35
2017-03-18T11:54:31.335Z,1.15
2017-03-18T11:55:36.038Z,1.15
2017-03-18T11:56:41.721Z,1.20
2017-03-18T11:57:48.319Z,1.42
2017-03-18T11:58:54.510Z,1.53
2017-03-18T11:59:59.340Z,1.42
2017-03-18T12:01:04.985Z,2.77
2017-03-18T12:02:10.822Z,1.48
2017-03-18T12:03:16.039Z,2.42
2017-03-18T12:04:21.795Z,1.27
2017-03-18T12:05:27.238Z,1.40
2017-03-18T12:06:33.507Z,1.17
2017-03-18T12:07:38.441Z,1.50
2017-03-18T12:08:44.073Z,1.12
2017-03-18T12:09:49.646Z,1.23
2017-03-18T12:10:55.217Z,1.10
2017-03-18T12:12:01.444Z,2.33
2017-03-18T12:13:09.465Z,1.30
2017-03-18T12:14:15.474Z,1.22
2017-03-18T12:15:20.244Z,1.40
2017-03-18T12:16:25.816Z,1.33
2017-03-18T12:17:31.453Z,1.63
2017-03-18T12:18:36.367Z,1.50
2017-03-18T12:19:41.919Z,1.48
2017-03-18T12:20:48.762Z,1.25
2017-03-18T12:21:54.309Z,1.27
2017-03-18T12:23:00.441Z,1.28
2017-03-18T12:24:05.470Z,1.80
2017-03-18T12:25:11.458Z,3.98
2017-03-18T12:26:17.538Z,2.85
2017-03-18T12:27:22.346Z,1.60
2017-03-18T12:28:27.983Z,1.52
2017-03-18T12:29:33.358Z,1.37
2017-03-18T12:30:39.690Z,2.22
2017-03-18T12:31:44.569Z,1.82
2017-03-18T12:32:51.242Z,1.60
2017-03-18T12:33:56.640Z,3.20
2017-03-18T12:35:02.323Z,2.95
2017-03-18T12:36:08.142Z,2.58
2017-03-18T12:37:13.407Z,3.85
2017-03-18T12:38:18.872Z,2.15
2017-03-18T12:39:25.106Z,2.57
2017-03-18T12:40:29.950Z,1.87
2017-03-18T12:41:36.127Z,2.10
2017-03-18T12:42:41.038Z,3.02
2017-03-18T12:43:46.661Z,1.83
2017-03-18T12:44:52.351Z,2.37
2017-03-18T12:46:00.653Z,1.45
2017-03-18T12:47:05.474Z,1.98
2017-03-18T12:48:11.870Z,1.60
2017-03-18T12:49:16.702Z,2.20
2017-03-18T12:50:23.114Z,2.25
2017-03-18T12:51:29.679Z,2.25
2017-03-18T12:52:35.146Z,2.05
2017-03-18T12:53:41.465Z,2.07
2017-03-18T12:54:47.045Z,2.20
2017-03-18T12:55:51.724Z,1.93
2017-03-18T12:56:57.133Z,1.92
2017-03-18T12:58:02.670Z,2.43
2017-03-18T12:59:08.955Z,2.80
2017-03-18T13:00:14.520Z,2.65
2017-03-18T13:01:20.424Z,2.07
2017-03-18T13:02:25.885Z,2.75
2017-03-18T13:03:30.596Z,2.72
2017-03-18T13:04:36.110Z,2.30
2017-03-18T13:05:41.501Z,2.78
2017-03-18T13:06:48.139Z,2.15
2017-03-18T13:07:52.805Z,2.75
2017-03-18T13:08:59.114Z,2.40
2017-03-18T13:10:03.921Z,2.50
2017-03-18T13:11:08.658Z,2.53
2017-03-18T13:12:14.266Z,2.85
2017-03-18T13:13:20.563Z,2.25
2017-03-18T13:14:26.211Z,2.67
2017-03-18T13:15:31.643Z,3.07
2017-03-18T13:16:37.893Z,2.58
2017-03-18T13:17:42.622Z,3.08
2017-03-18T13:18:48.897Z,2.80
2017-03-18T13:19:54.110Z,3.47
2017-03-18T13:20:59.936Z,2.95
2017-03-18T13:22:04.588Z,2.85
2017-03-18T13:23:09.369Z,3.48
2017-03-18T13:24:15.675Z,3.30
2017-03-18T13:25:21.008Z,3.05
2017-03-18T13:26:25.924Z,4.50
2017-03-18T13:27:30.717Z,4.30
2017-03-18T13:28:36.342Z,3.92
2017-03-18T13:29:41.994Z,3.33
2017-03-18T13:30:47.408Z,4.22
2017-03-18T13:31:53.371Z,3.63
2017-03-18T13:32:58.586Z,3.68
2017-03-18T13:34:04.070Z,3.62
2017-03-18T13:35:10.009Z,3.53
2017-03-18T13:36:21.926Z,4.03
2017-03-18T13:37:26.814Z,4.02
2017-03-18T13:38:31.506Z,5.43
2017-03-18T13:39:37.009Z,4.93
2017-03-18T13:40:42.595Z,4.45
2017-03-18T13:41:48.057Z,4.82
2017-03-18T13:42:53.578Z,4.00
2017-03-18T13:43:58.287Z,4.43
2017-03-18T13:45:03.930Z,4.48
2017-03-18T13:46:09.381Z,4.57
2017-03-18T13:47:14.083Z,4.13
2017-03-18T13:48:19.579Z,4.30
2017-03-18T13:49:25.158Z,4.30
2017-03-18T13:50:29.873Z,4.00
2017-03-18T13:51:35.418Z,4.78
2017-03-18T13:52:40.734Z,4.53
2017-03-18T13:53:46.213Z,4.63
2017-03-18T13:54:51.827Z,5.42
2017-03-18T13:55:57.641Z,5.50
2017-03-18T13:57:02.931Z,4.88
2017-03-18T13:58:08.361Z,4.40
2017-03-18T13:59:13.995Z,4.57
2017-03-18T14:00:19.639Z,4.97
2017-03-18T14:01:25.025Z,4.13
2017-03-18T14:02:30.589Z,5.77
2017-03-18T14:03:36.126Z,4.58
2017-03-18T14:04:40.886Z,7.93
2017-03-18T14:05:46.474Z,5.42
2017-03-18T14:06:51.146Z,6.37
2017-03-18T14:07:56.785Z,5.02
2017-03-18T14:09:05.626Z,5.83
2017-03-18T14:10:10.966Z,5.12
2017-03-18T14:11:16.538Z,5.50
2017-03-18T14:12:22.010Z,6.07
2017-03-18T14:13:27.635Z,5.02
2017-03-18T14:14:33.725Z,6.27
2017-03-18T14:15:38.742Z,5.87
2017-03-18T14:16:44.242Z,5.00
2017-03-18T14:17:49.799Z,5.75
2017-03-18T14:18:54.751Z,7.07
2017-03-18T14:19:59.998Z,5.78
2017-03-18T14:21:05.490Z,5.23
2017-03-18T14:22:11.086Z,5.92
2017-03-18T14:23:16.794Z,5.65
2017-03-18T14:24:22.270Z,6.05
2017-03-18T14:25:27.861Z,6.02
2017-03-18T14:26:33.383Z,5.78